Time;durP1;ratioP1;P1;durP2;ratioP2;P2;SDS_P1;SDS_P2;PMS_P1;PMS_P2;Temp;Humidity;BMP_temperature;BMP_pressure;BME280_temperature;BME280_humidity;BME280_pressure;Samples;Min_cycle;Max_cycle;Signal;HPM_P1;HPM_P2
2024/01/20 00:01:36;;;;;;;;;;;;;;;0.34;56.96;101211.72;5367346;32;35072;-69
2024/01/20 00:04:38;;;;;;;;;;;;;;;0.36;57.53;101230.72;5358983;32;35194;-69
2024/01/20 00:07:41;;;;;;;;;;;;;;;0.24;58.14;101231.38;5369090;32;35234;-69
2024/01/20 00:10:45;;;;;;;;;;;;;;;0.68;56.73;101233.78;5371483;32;34913;-69
2024/01/20 00:13:48;;;;;;;;;;;;;;;0.23;58.70;101237.41;5358113;32;35848;-70
2024/01/20 00:16:50;;;;;;;;;;;;;;;0.39;57.50;101234.22;5355477;32;34877;-69
2024/01/20 00:19:53;;;;;;;;;;;;;;;0.18;57.68;101236.44;5373729;32;34139;-69
2024/01/20 00:22:56;;;;;;;;;;;;;;;0.21;57.97;101236.50;5358836;32;34347;-69
2024/01/20 00:25:59;;;;;;;;;;;;;;;0.52;57.11;101236.16;5369037;32;35458;-69
2024/01/20 00:29:03;;;;;;;;;;;;;;;0.34;56.92;101238.44;5355487;32;35040;-70
2024/01/20 00:32:05;;;;;;;;;;;;;;;0.75;55.94;101240.78;5369892;32;34785;-69
2024/01/20 00:35:07;;;;;;;;;;;;;;;0.37;56.92;101245.38;5359021;32;35297;-68
2024/01/20 00:38:10;;;;;;;;;;;;;;;-0.15;58.27;101247.06;5364640;32;34724;-69
2024/01/20 00:41:12;;;;;;;;;;;;;;;0.16;57.55;101240.72;5372625;32;35656;-70
2024/01/20 00:44:14;;;;;;;;;;;;;;;0.07;57.09;101253.50;5369207;32;34946;-70
2024/01/20 00:47:17;;;;;;;;;;;;;;;-0.21;58.08;101258.16;5358532;32;35360;-69
2024/01/20 00:50:19;;;;;;;;;;;;;;;-0.07;57.84;101254.09;5368913;32;35033;-70
2024/01/20 00:53:21;;;;;;;;;;;;;;;-0.07;58.27;101250.66;5368874;32;35454;-68
2024/01/20 00:56:24;;;;;;;;;;;;;;;0.19;58.12;101251.09;5369110;32;35533;-70
2024/01/20 00:59:26;;;;;;;;;;;;;;;-0.12;58.80;101255.75;5353821;32;35279;-70
2024/01/20 01:02:29;;;;;;;;;;;;;;;-0.15;58.53;101267.75;5357182;32;35341;-69
2024/01/20 01:05:31;;;;;;;;;;;;;;;-0.01;58.04;101266.28;5367678;32;34780;-69
2024/01/20 01:08:33;;;;;;;;;;;;;;;0.46;57.13;101269.69;5358608;32;34407;-69
2024/01/20 01:11:35;;;;;;;;;;;;;;;0.24;57.52;101270.16;5367963;32;33952;-69
2024/01/20 01:14:37;;;;;;;;;;;;;;;0.05;58.32;101275.84;5370502;32;34924;-70
2024/01/20 01:17:40;;;;;;;;;;;;;;;0.04;58.01;101287.91;5374756;32;34773;-70
2024/01/20 01:20:42;;;;;;;;;;;;;;;-0.08;58.69;101290.25;5370648;32;34981;-70
2024/01/20 01:23:44;;;;;;;;;;;;;;;0.18;58.25;101282.97;5371264;32;34188;-69
2024/01/20 01:26:47;;;;;;;;;;;;;;;-0.08;58.38;101293.72;5368663;32;35081;-69
2024/01/20 01:29:49;;;;;;;;;;;;;;;0.31;57.80;101292.69;5375186;32;35057;-70
2024/01/20 01:32:51;;;;;;;;;;;;;;;0.77;56.43;101301.19;5370217;32;34873;-70
2024/01/20 01:35:53;;;;;;;;;;;;;;;0.27;57.72;101301.25;5370785;32;34167;-71
2024/01/20 01:38:55;;;;;;;;;;;;;;;0.38;57.05;101297.13;5366770;32;35361;-69
2024/01/20 01:41:57;;;;;;;;;;;;;;;0.23;57.31;101302.03;5370405;32;34122;-69
2024/01/20 01:45:00;;;;;;;;;;;;;;;0.23;57.20;101297.72;5375138;32;35594;-69
2024/01/20 01:48:02;;;;;;;;;;;;;;;0.14;57.85;101309.62;5356756;32;35494;-69
2024/01/20 01:51:04;;;;;;;;;;;;;;;0.22;57.78;101300.28;5374229;32;35500;-68
2024/01/20 01:54:07;;;;;;;;;;;;;;;0.13;58.41;101297.53;5348620;32;35726;-70
2024/01/20 01:57:09;;;;;;;;;;;;;;;-0.01;58.53;101305.91;5366824;32;34434;-69
2024/01/20 02:00:11;;;;;;;;;;;;;;;-0.22;59.39;101302.94;5315355;32;837321;-69
2024/01/20 02:03:14;;;;;;;;;;;;;;;-0.40;59.39;101305.13;5367445;32;35503;-69
2024/01/20 02:06:16;;;;;;;;;;;;;;;-0.19;59.25;101305.59;5360343;32;35826;-69
2024/01/20 02:09:18;;;;;;;;;;;;;;;-0.25;59.41;101296.84;5370046;32;34889;-69
2024/01/20 02:12:20;;;;;;;;;;;;;;;0.20;58.95;101312.34;5373526;32;34752;-70
2024/01/20 02:15:23;;;;;;;;;;;;;;;0.08;58.95;101312.97;5371368;32;34378;-70
2024/01/20 02:18:25;;;;;;;;;;;;;;;0.25;58.57;101321.03;5355926;32;35502;-69
2024/01/20 02:21:27;;;;;;;;;;;;;;;-0.39;59.96;101327.53;5374189;32;34902;-69
2024/01/20 02:24:30;;;;;;;;;;;;;;;-0.10;60.02;101339.34;5364112;32;35438;-69
2024/01/20 02:27:32;;;;;;;;;;;;;;;0.17;59.33;101323.47;5345986;32;34853;-69
2024/01/20 02:30:34;;;;;;;;;;;;;;;0.34;58.57;101339.31;5356502;32;35591;-68
2024/01/20 02:33:36;;;;;;;;;;;;;;;-0.03;58.76;101348.94;5372899;32;35411;-69
2024/01/20 02:36:38;;;;;;;;;;;;;;;-0.51;61.04;101358.31;5370934;32;35046;-69
2024/01/20 02:39:40;;;;;;;;;;;;;;;0.08;59.36;101350.88;5346965;32;34687;-68
2024/01/20 02:42:43;;;;;;;;;;;;;;;0.07;59.09;101362.94;5374643;32;34291;-69
2024/01/20 02:45:45;;;;;;;;;;;;;;;0.14;60.01;101369.97;5370121;32;34710;-69
2024/01/20 02:48:47;;;;;;;;;;;;;;;0.07;59.42;101357.78;5374304;32;34988;-70
2024/01/20 02:51:50;;;;;;;;;;;;;;;0.11;59.14;101363.84;5369394;32;35346;-69
2024/01/20 02:54:52;;;;;;;;;;;;;;;0.53;58.91;101375.00;5359656;32;35541;-70
2024/01/20 02:57:54;;;;;;;;;;;;;;;0.46;58.69;101362.78;5365399;32;36249;-68
2024/01/20 03:00:58;;;;;;;;;;;;;;;-0.16;60.42;101379.69;5360576;32;34356;-69
2024/01/20 03:04:00;;;;;;;;;;;;;;;-0.59;62.12;101384.81;5372049;32;35536;-69
2024/01/20 03:07:03;;;;;;;;;;;;;;;-0.02;60.48;101378.25;5367306;32;35600;-69
2024/01/20 03:10:05;;;;;;;;;;;;;;;-0.22;60.39;101383.03;5374445;32;34259;-69
2024/01/20 03:13:07;;;;;;;;;;;;;;;-0.19;60.67;101374.44;5369477;32;34857;-69
2024/01/20 03:16:09;;;;;;;;;;;;;;;-0.32;60.98;101381.09;5372266;32;35366;-70
2024/01/20 03:19:12;;;;;;;;;;;;;;;0.27;58.67;101371.06;5371371;32;35187;-68
2024/01/20 03:22:14;;;;;;;;;;;;;;;-0.49;61.75;101390.19;5350386;32;35488;-69
2024/01/20 03:25:16;;;;;;;;;;;;;;;-1.09;63.66;101401.72;5385129;32;34977;-67
2024/01/20 03:28:18;;;;;;;;;;;;;;;-0.45;61.81;101404.91;5364804;32;34844;-70
2024/01/20 03:31:20;;;;;;;;;;;;;;;-0.57;61.86;101403.81;5373413;32;34912;-69
2024/01/20 03:34:22;;;;;;;;;;;;;;;-0.36;62.23;101405.97;5370072;32;34994;-69
2024/01/20 03:37:25;;;;;;;;;;;;;;;-0.19;60.91;101405.44;5356835;32;35004;-69
2024/01/20 03:40:27;;;;;;;;;;;;;;;-0.38;61.97;101404.22;5371721;32;35337;-69
2024/01/20 03:43:30;;;;;;;;;;;;;;;-0.14;60.66;101401.25;5354807;32;34894;-69
2024/01/20 03:46:33;;;;;;;;;;;;;;;-0.32;60.95;101412.97;5359257;32;34483;-69
2024/01/20 03:49:35;;;;;;;;;;;;;;;-0.74;62.02;101410.28;5369425;32;34486;-70
2024/01/20 03:52:37;;;;;;;;;;;;;;;-0.93;62.88;101413.28;5373615;32;36099;-69
2024/01/20 03:55:39;;;;;;;;;;;;;;;-0.79;62.56;101414.47;5381098;32;34117;-68
2024/01/20 03:58:42;;;;;;;;;;;;;;;-0.10;60.75;101419.44;5364926;32;35899;-70
2024/01/20 04:01:44;;;;;;;;;;;;;;;-0.44;61.14;101428.19;5370580;32;35446;-69
2024/01/20 04:04:46;;;;;;;;;;;;;;;0.04;60.25;101437.81;5353694;32;35244;-68
2024/01/20 04:07:48;;;;;;;;;;;;;;;-0.08;59.63;101435.84;5373201;32;34410;-69
2024/01/20 04:10:50;;;;;;;;;;;;;;;-0.30;59.70;101429.38;5368504;32;34398;-71
2024/01/20 04:13:52;;;;;;;;;;;;;;;0.16;59.43;101430.31;5359420;32;34959;-68
2024/01/20 04:16:54;;;;;;;;;;;;;;;-0.47;60.96;101435.00;5354664;32;35096;-70
2024/01/20 04:19:57;;;;;;;;;;;;;;;-0.08;60.07;101422.06;5356354;32;33006;-69
2024/01/20 04:22:59;;;;;;;;;;;;;;;-0.71;61.32;101424.97;5355277;32;35444;-69
2024/01/20 04:26:01;;;;;;;;;;;;;;;-0.58;61.11;101412.41;5352330;32;35345;-69
2024/01/20 04:29:03;;;;;;;;;;;;;;;-0.66;61.24;101424.25;5373327;32;34477;-69
2024/01/20 04:32:05;;;;;;;;;;;;;;;-0.18;59.73;101427.91;5354499;32;34120;-69
2024/01/20 04:35:08;;;;;;;;;;;;;;;0.04;59.56;101431.78;5373773;32;34232;-70
2024/01/20 04:38:10;;;;;;;;;;;;;;;-0.19;59.96;101447.69;5364963;32;34427;-69
2024/01/20 04:41:12;;;;;;;;;;;;;;;-0.10;59.53;101442.72;5368996;32;34709;-68
2024/01/20 04:44:14;;;;;;;;;;;;;;;0.05;58.92;101457.66;5358370;32;35469;-69
2024/01/20 04:47:17;;;;;;;;;;;;;;;0.32;58.35;101466.81;5353524;32;34637;-70
2024/01/20 04:50:19;;;;;;;;;;;;;;;0.27;57.84;101474.50;5359088;32;34657;-70
2024/01/20 04:53:21;;;;;;;;;;;;;;;-0.03;58.30;101482.47;5354214;32;35396;-69
2024/01/20 04:56:23;;;;;;;;;;;;;;;-0.10;58.52;101485.78;5355039;32;34856;-69
2024/01/20 04:59:25;;;;;;;;;;;;;;;0.26;57.87;101494.31;5363261;32;34546;-69
2024/01/20 05:02:27;;;;;;;;;;;;;;;0.84;56.54;101488.50;5366381;32;35397;-69
2024/01/20 05:05:29;;;;;;;;;;;;;;;0.11;57.53;101481.06;5356974;32;34804;-68
2024/01/20 05:08:32;;;;;;;;;;;;;;;0.39;57.95;101482.50;5367202;32;34308;-69
2024/01/20 05:11:34;;;;;;;;;;;;;;;0.72;56.98;101484.00;5371804;32;34333;-69
2024/01/20 05:14:36;;;;;;;;;;;;;;;0.06;57.65;101489.53;5368220;32;34993;-70
2024/01/20 05:17:38;;;;;;;;;;;;;;;0.02;57.90;101493.78;5372228;32;34473;-69
2024/01/20 05:20:40;;;;;;;;;;;;;;;-0.28;58.71;101492.25;5367242;32;34292;-70
2024/01/20 05:23:42;;;;;;;;;;;;;;;0.39;56.94;101490.25;5359884;32;34997;-70
2024/01/20 05:26:45;;;;;;;;;;;;;;;0.07;57.64;101493.91;5369908;32;35073;-70
2024/01/20 05:29:47;;;;;;;;;;;;;;;0.15;57.60;101500.09;5366979;32;34413;-69
2024/01/20 05:32:49;;;;;;;;;;;;;;;0.12;58.57;101507.78;5371063;32;35013;-70
2024/01/20 05:35:51;;;;;;;;;;;;;;;-0.16;59.00;101508.88;5353267;32;35156;-71
2024/01/20 05:38:53;;;;;;;;;;;;;;;0.31;57.66;101517.66;5351911;32;34528;-68
2024/01/20 05:41:56;;;;;;;;;;;;;;;-0.25;58.88;101519.91;5366746;32;34889;-69
2024/01/20 05:44:58;;;;;;;;;;;;;;;0.08;58.15;101516.31;5366793;32;34266;-69
2024/01/20 05:48:00;;;;;;;;;;;;;;;0.21;58.44;101519.19;5371170;32;34972;-69
2024/01/20 05:51:03;;;;;;;;;;;;;;;-0.20;59.38;101527.75;5366458;32;35394;-69
2024/01/20 05:54:05;;;;;;;;;;;;;;;0.02;58.93;101534.28;5372467;32;34269;-70
2024/01/20 05:57:08;;;;;;;;;;;;;;;-0.37;59.93;101540.28;5363131;32;34952;-69
2024/01/20 06:00:10;;;;;;;;;;;;;;;-0.68;61.50;101544.69;5365482;32;34728;-68
2024/01/20 06:03:13;;;;;;;;;;;;;;;-0.44;60.78;101546.16;5367775;32;34796;-69
2024/01/20 06:06:15;;;;;;;;;;;;;;;-0.62;61.16;101550.00;5354429;32;35408;-69
2024/01/20 06:09:17;;;;;;;;;;;;;;;-0.91;62.06;101574.19;5360252;32;34713;-69
2024/01/20 06:12:19;;;;;;;;;;;;;;;-0.80;62.28;101575.34;5354945;32;35084;-70
2024/01/20 06:15:21;;;;;;;;;;;;;;;-0.02;60.06;101580.72;5373717;32;34221;-70
2024/01/20 06:18:23;;;;;;;;;;;;;;;-0.08;60.52;101580.56;5368838;32;34267;-68
2024/01/20 06:21:26;;;;;;;;;;;;;;;0.18;59.73;101588.06;5372399;32;34710;-69
2024/01/20 06:24:29;;;;;;;;;;;;;;;-0.31;60.50;101589.50;5347112;32;35175;-69
2024/01/20 06:27:32;;;;;;;;;;;;;;;-0.09;60.16;101583.13;5366228;32;35416;-70
2024/01/20 06:30:34;;;;;;;;;;;;;;;-0.14;59.35;101590.78;5373651;32;34810;-69
2024/01/20 06:33:37;;;;;;;;;;;;;;;-0.61;61.22;101595.66;5367935;32;34639;-69
2024/01/20 06:36:39;;;;;;;;;;;;;;;-0.64;61.45;101602.47;5359931;32;34996;-69
2024/01/20 06:39:42;;;;;;;;;;;;;;;-0.76;62.24;101605.59;5361643;32;35757;-70
2024/01/20 06:42:44;;;;;;;;;;;;;;;-0.03;59.89;101614.28;5372059;32;34734;-69
2024/01/20 06:45:46;;;;;;;;;;;;;;;-0.85;62.68;101615.66;5369914;32;34887;-70
2024/01/20 06:48:48;;;;;;;;;;;;;;;-0.21;61.11;101631.94;5369193;32;35374;-69
2024/01/20 06:51:51;;;;;;;;;;;;;;;-0.51;61.88;101626.91;5354026;32;35009;-70
2024/01/20 06:54:53;;;;;;;;;;;;;;;-0.65;61.93;101642.88;5369140;32;34357;-71
2024/01/20 06:57:55;;;;;;;;;;;;;;;-0.32;61.46;101647.19;5370475;32;34878;-70
2024/01/20 07:00:57;;;;;;;;;;;;;;;-0.45;61.72;101656.34;5362099;32;34977;-68
2024/01/20 07:03:59;;;;;;;;;;;;;;;0.05;60.25;101656.69;5370143;32;35479;-69
2024/01/20 07:07:02;;;;;;;;;;;;;;;-0.17;60.85;101668.25;5369876;32;35385;-68
2024/01/20 07:10:05;;;;;;;;;;;;;;;0.04;60.35;101672.19;5368100;32;35282;-69
2024/01/20 07:13:08;;;;;;;;;;;;;;;0.53;58.74;101675.06;5369674;32;34902;-69
2024/01/20 07:16:10;;;;;;;;;;;;;;;-0.22;60.02;101690.50;5368114;32;35183;-72
2024/01/20 07:19:12;;;;;;;;;;;;;;;-0.06;60.52;101702.13;5359739;32;35257;-70
2024/01/20 07:22:15;;;;;;;;;;;;;;;0.30;60.50;101696.94;5352145;32;35874;-69
2024/01/20 07:25:17;;;;;;;;;;;;;;;1.12;57.83;101697.91;5354350;32;35067;-69
2024/01/20 07:28:19;;;;;;;;;;;;;;;1.57;55.49;101697.91;5356049;32;34796;-69
2024/01/20 07:31:22;;;;;;;;;;;;;;;0.75;57.53;101696.25;5368280;32;35486;-69
2024/01/20 07:34:25;;;;;;;;;;;;;;;0.56;57.19;101689.78;5359589;32;34653;-70
2024/01/20 07:37:28;;;;;;;;;;;;;;;0.56;58.41;101707.87;5357360;32;35006;-69
2024/01/20 07:40:30;;;;;;;;;;;;;;;0.85;57.72;101721.50;5363133;32;34822;-70
2024/01/20 07:43:32;;;;;;;;;;;;;;;0.82;57.42;101713.66;5367983;32;35322;-70
2024/01/20 07:46:35;;;;;;;;;;;;;;;0.69;57.56;101724.56;5369911;32;34599;-69
2024/01/20 07:49:37;;;;;;;;;;;;;;;0.33;59.25;101717.72;5357563;32;34617;-70
2024/01/20 07:52:39;;;;;;;;;;;;;;;1.08;56.89;101722.84;5367956;32;35433;-69
2024/01/20 07:55:42;;;;;;;;;;;;;;;0.60;57.37;101717.47;5372715;32;35269;-70
2024/01/20 07:58:45;;;;;;;;;;;;;;;1.12;57.07;101725.50;5346231;32;35522;-70
2024/01/20 08:01:47;;;;;;;;;;;;;;;1.01;57.25;101720.97;5367903;32;35580;-68
2024/01/20 08:04:49;;;;;;;;;;;;;;;1.26;56.23;101724.94;5366800;32;34772;-69
2024/01/20 08:07:51;;;;;;;;;;;;;;;0.94;57.09;101737.22;5354960;32;34472;-69
2024/01/20 08:10:53;;;;;;;;;;;;;;;0.45;58.47;101732.63;5371140;32;35819;-69
2024/01/20 08:13:55;;;;;;;;;;;;;;;1.02;57.21;101729.59;5354469;32;35866;-69
2024/01/20 08:16:57;;;;;;;;;;;;;;;0.84;57.85;101747.31;5358933;32;34719;-71
2024/01/20 08:19:59;;;;;;;;;;;;;;;1.33;57.15;101738.87;5367793;32;34774;-70
2024/01/20 08:23:02;;;;;;;;;;;;;;;1.12;56.33;101741.03;5356065;32;34624;-70
2024/01/20 08:26:04;;;;;;;;;;;;;;;1.38;55.42;101745.03;5364764;32;34817;-70
2024/01/20 08:29:06;;;;;;;;;;;;;;;0.78;57.00;101758.44;5354626;32;34190;-69
2024/01/20 08:32:08;;;;;;;;;;;;;;;1.00;57.54;101755.47;5371765;32;34749;-69
2024/01/20 08:35:11;;;;;;;;;;;;;;;1.28;56.92;101748.28;5353587;32;35157;-69
2024/01/20 08:38:13;;;;;;;;;;;;;;;1.25;56.26;101761.19;5353799;32;34984;-71
2024/01/20 08:41:15;;;;;;;;;;;;;;;1.61;55.18;101768.78;5359219;32;35497;-69
2024/01/20 08:44:18;;;;;;;;;;;;;;;1.56;55.43;101762.69;5358183;32;34423;-69
2024/01/20 08:47:20;;;;;;;;;;;;;;;2.17;53.31;101769.84;5367270;32;35261;-69
2024/01/20 08:50:22;;;;;;;;;;;;;;;1.77;54.81;101773.44;5354460;32;34750;-69
2024/01/20 08:53:25;;;;;;;;;;;;;;;1.77;53.82;101772.56;5357311;32;35081;-70
2024/01/20 08:56:27;;;;;;;;;;;;;;;1.15;56.25;101780.81;5363398;32;35409;-70
2024/01/20 08:59:30;;;;;;;;;;;;;;;1.23;56.04;101770.62;5339510;32;35323;-69
2024/01/20 09:02:32;;;;;;;;;;;;;;;2.18;53.14;101769.00;5351484;32;35156;-69
2024/01/20 09:05:34;;;;;;;;;;;;;;;1.45;55.38;101782.31;5343317;32;34887;-69
2024/01/20 09:08:40;;;;;;;;;;;;;;;2.08;54.11;101786.97;5366750;32;35584;-69
2024/01/20 09:11:42;;;;;;;;;;;;;;;2.66;52.70;101791.41;5366242;32;34349;-69
2024/01/20 09:14:44;;;;;;;;;;;;;;;2.86;51.55;101785.66;5371676;32;35181;-69
2024/01/20 09:17:47;;;;;;;;;;;;;;;2.44;52.62;101779.81;5367228;32;34907;-69
2024/01/20 09:20:49;;;;;;;;;;;;;;;2.53;52.63;101786.88;5356552;32;34975;-70
2024/01/20 09:23:51;;;;;;;;;;;;;;;2.47;51.86;101791.97;5359777;32;34672;-70
2024/01/20 09:26:53;;;;;;;;;;;;;;;2.74;51.65;101782.87;5355332;32;34912;-71
2024/01/20 09:29:56;;;;;;;;;;;;;;;2.52;51.86;101786.88;5353552;32;34803;-69
2024/01/20 09:32:58;;;;;;;;;;;;;;;2.95;51.46;101784.06;5365567;32;34395;-69
2024/01/20 09:36:02;;;;;;;;;;;;;;;1.82;53.00;101784.78;5359580;32;34673;-70
2024/01/20 09:39:05;;;;;;;;;;;;;;;2.90;51.43;101782.28;5367640;32;34331;-71
2024/01/20 09:42:07;;;;;;;;;;;;;;;2.46;52.80;101787.62;5373743;32;34955;-70
2024/01/20 09:45:09;;;;;;;;;;;;;;;3.15;50.69;101781.72;5369328;32;35385;-71
2024/01/20 09:48:11;;;;;;;;;;;;;;;3.50;50.61;101773.53;5358836;32;34104;-69
2024/01/20 09:51:14;;;;;;;;;;;;;;;3.15;51.18;101778.25;5369636;32;34568;-71
2024/01/20 09:54:17;;;;;;;;;;;;;;;3.11;51.20;101784.28;5354919;32;34802;-70
2024/01/20 09:57:20;;;;;;;;;;;;;;;3.23;51.09;101777.53;5355459;32;34730;-70
2024/01/20 10:00:23;;;;;;;;;;;;;;;2.85;52.09;101770.94;5351815;32;34311;-71
2024/01/20 10:03:25;;;;;;;;;;;;;;;3.42;51.43;101772.56;5371580;32;34432;-69
2024/01/20 10:06:28;;;;;;;;;;;;;;;3.55;50.55;101760.59;5353923;32;35387;-69
2024/01/20 10:09:30;;;;;;;;;;;;;;;4.57;47.40;101753.72;5371979;32;35622;-70
2024/01/20 10:12:33;;;;;;;;;;;;;;;3.08;50.17;101751.31;5370099;32;34205;-69
2024/01/20 10:15:35;;;;;;;;;;;;;;;4.12;48.39;101760.28;5369631;32;35301;-70
2024/01/20 10:18:38;;;;;;;;;;;;;;;2.95;50.74;101765.00;5373403;32;35177;-70
2024/01/20 10:21:41;;;;;;;;;;;;;;;4.19;48.21;101754.31;5354164;32;36119;-70
2024/01/20 10:24:46;;;;;;;;;;;;;;;3.51;49.46;101754.47;5367189;32;35309;-74
2024/01/20 10:27:49;;;;;;;;;;;;;;;4.06;48.23;101757.66;5366743;32;35038;-69
2024/01/20 10:30:51;;;;;;;;;;;;;;;3.75;48.61;101759.09;5356519;32;34761;-70
2024/01/20 10:33:53;;;;;;;;;;;;;;;3.96;48.20;101756.69;5370993;32;35327;-70
2024/01/20 10:36:56;;;;;;;;;;;;;;;3.73;49.01;101753.84;5354711;32;34742;-70
2024/01/20 10:39:58;;;;;;;;;;;;;;;4.78;46.96;101747.81;5354511;32;35534;-70
2024/01/20 10:43:00;;;;;;;;;;;;;;;6.56;43.23;101733.50;5354405;32;34859;-70
2024/01/20 10:46:11;;;;;;;;;;;;;;;8.52;38.77;101725.56;5372380;32;34497;-70
2024/01/20 10:49:15;;;;;;;;;;;;;;;8.62;37.81;101725.44;5354964;32;34284;-69
2024/01/20 10:52:17;;;;;;;;;;;;;;;9.07;36.83;101728.47;5354656;32;35006;-69
2024/01/20 10:55:19;;;;;;;;;;;;;;;11.47;32.05;101721.91;5372966;32;34597;-70
2024/01/20 10:58:23;;;;;;;;;;;;;;;12.08;31.58;101723.16;5359524;32;35346;-70
2024/01/20 11:01:25;;;;;;;;;;;;;;;12.70;30.19;101725.13;5372265;32;34584;-70
2024/01/20 11:04:32;;;;;;;;;;;;;;;9.44;34.17;101743.75;5366997;32;34857;-68
2024/01/20 11:07:35;;;;;;;;;;;;;;;7.69;37.70;101741.84;5372304;32;35617;-72
2024/01/20 11:10:41;;;;;;;;;;;;;;;9.99;34.20;101737.75;5354981;32;36039;-70
2024/01/20 11:13:44;;;;;;;;;;;;;;;7.68;37.85;101747.09;5354414;32;35055;-72
2024/01/20 11:16:48;;;;;;;;;;;;;;;9.82;34.72;101738.00;5372908;32;34885;-70
2024/01/20 11:19:50;;;;;;;;;;;;;;;9.11;35.11;101731.94;5354692;32;34962;-71
2024/01/20 11:22:53;;;;;;;;;;;;;;;8.74;35.77;101742.81;5366773;32;34844;-71
2024/01/20 11:25:55;;;;;;;;;;;;;;;8.70;36.38;101750.72;5365072;32;35344;-70
2024/01/20 11:28:58;;;;;;;;;;;;;;;7.39;38.19;101755.94;5355695;32;35418;-70
2024/01/20 11:32:00;;;;;;;;;;;;;;;7.88;38.18;101755.69;5355737;32;35264;-70
2024/01/20 11:35:03;;;;;;;;;;;;;;;8.21;37.92;101745.87;5368536;32;35560;-69
2024/01/20 11:38:05;;;;;;;;;;;;;;;9.33;36.60;101741.25;5363892;32;35268;-70
2024/01/20 11:41:07;;;;;;;;;;;;;;;9.85;34.35;101748.44;5351196;32;34506;-70
2024/01/20 11:44:10;;;;;;;;;;;;;;;8.92;36.84;101740.00;5358776;32;34959;-70
2024/01/20 11:47:12;;;;;;;;;;;;;;;7.76;38.53;101740.06;5368007;32;35530;-69
2024/01/20 11:50:14;;;;;;;;;;;;;;;8.10;38.18;101736.34;5356837;32;35205;-70
2024/01/20 11:53:16;;;;;;;;;;;;;;;8.88;36.71;101726.91;5355760;32;35071;-71
2024/01/20 11:56:18;;;;;;;;;;;;;;;8.85;36.67;101725.22;5365531;32;35448;-70
2024/01/20 11:59:20;;;;;;;;;;;;;;;10.39;34.09;101716.13;5363817;32;34200;-72
2024/01/20 12:02:23;;;;;;;;;;;;;;;9.30;35.51;101729.94;5366842;32;36367;-70
2024/01/20 12:05:25;;;;;;;;;;;;;;;8.86;36.91;101732.19;5371239;32;34731;-71
2024/01/20 12:08:27;;;;;;;;;;;;;;;8.87;35.74;101736.53;5354101;32;34396;-71
2024/01/20 12:11:30;;;;;;;;;;;;;;;9.42;35.50;101730.66;5370174;32;34762;-70
2024/01/20 12:14:32;;;;;;;;;;;;;;;7.81;37.45;101728.69;5348343;32;35197;-71
2024/01/20 12:17:34;;;;;;;;;;;;;;;10.25;34.01;101713.72;5353475;32;35323;-72
2024/01/20 12:20:36;;;;;;;;;;;;;;;11.32;32.48;101702.00;5358492;32;34326;-71
2024/01/20 12:23:39;;;;;;;;;;;;;;;11.63;31.43;101694.31;5342071;32;34269;-71
2024/01/20 12:26:41;;;;;;;;;;;;;;;12.62;30.29;101690.16;5370263;32;35399;-71
2024/01/20 12:29:44;;;;;;;;;;;;;;;11.94;30.41;101685.75;5367907;32;34687;-73
2024/01/20 12:32:46;;;;;;;;;;;;;;;10.69;32.44;101688.38;5354574;32;35070;-71
2024/01/20 12:35:48;;;;;;;;;;;;;;;11.20;32.03;101689.12;5355894;32;35566;-70
2024/01/20 12:38:50;;;;;;;;;;;;;;;10.76;32.85;101690.03;5344813;32;35514;-71
2024/01/20 12:41:53;;;;;;;;;;;;;;;9.51;34.30;101703.41;5357772;32;34762;-69
2024/01/20 12:44:55;;;;;;;;;;;;;;;7.97;36.90;101700.66;5353027;32;34536;-71
2024/01/20 12:47:57;;;;;;;;;;;;;;;8.84;36.25;101696.41;5372178;32;34595;-69
2024/01/20 12:51:00;;;;;;;;;;;;;;;7.70;37.10;101701.72;5367260;32;34975;-70
2024/01/20 12:54:03;;;;;;;;;;;;;;;9.12;35.60;101692.56;5354312;32;34567;-71
2024/01/20 12:57:05;;;;;;;;;;;;;;;10.38;33.07;101685.47;5360126;32;35038;-70
2024/01/20 13:00:09;;;;;;;;;;;;;;;11.64;30.76;101684.66;5352582;32;34615;-71
2024/01/20 13:03:12;;;;;;;;;;;;;;;10.69;32.13;101677.87;5356219;32;34410;-70
2024/01/20 13:06:14;;;;;;;;;;;;;;;11.46;30.35;101687.69;5352443;32;34267;-70
2024/01/20 13:09:17;;;;;;;;;;;;;;;10.76;30.83;101693.53;5371707;32;34410;-70
2024/01/20 13:12:20;;;;;;;;;;;;;;;10.79;31.76;101700.47;5368582;32;34869;-69
2024/01/20 13:15:23;;;;;;;;;;;;;;;13.62;27.80;101691.69;5355861;32;34791;-70
2024/01/20 13:18:26;;;;;;;;;;;;;;;13.92;26.88;101689.84;5359947;32;34983;-71
2024/01/20 13:21:28;;;;;;;;;;;;;;;12.50;28.36;101686.09;5369851;32;34817;-71
2024/01/20 13:24:30;;;;;;;;;;;;;;;10.81;31.05;101702.16;5366829;32;34432;-69
2024/01/20 13:27:32;;;;;;;;;;;;;;;9.44;32.89;101712.28;5352983;32;34666;-70
2024/01/20 13:30:35;;;;;;;;;;;;;;;7.86;35.67;101726.94;5374529;32;34968;-70
2024/01/20 13:33:37;;;;;;;;;;;;;;;9.10;34.12;101732.81;5354903;32;35365;-70
2024/01/20 13:36:39;;;;;;;;;;;;;;;6.13;39.06;101738.75;5369611;32;34889;-70
2024/01/20 13:39:42;;;;;;;;;;;;;;;7.44;37.34;101728.03;5349345;32;34754;-69
2024/01/20 13:42:44;;;;;;;;;;;;;;;7.20;37.77;101743.81;5354918;32;35222;-71
2024/01/20 13:45:46;;;;;;;;;;;;;;;7.74;37.40;101737.47;5358781;32;35070;-71
2024/01/20 13:48:49;;;;;;;;;;;;;;;7.28;37.80;101739.44;5368745;32;35060;-71
2024/01/20 13:51:52;;;;;;;;;;;;;;;7.69;37.00;101739.22;5373100;32;34117;-70
2024/01/20 13:54:54;;;;;;;;;;;;;;;8.04;36.96;101744.22;5369249;32;34736;-71
2024/01/20 13:57:57;;;;;;;;;;;;;;;5.67;41.13;101762.13;5352966;32;35077;-69
2024/01/20 14:00:59;;;;;;;;;;;;;;;6.64;39.80;101758.78;5364012;32;35334;-70
2024/01/20 14:04:05;;;;;;;;;;;;;;;5.44;41.81;101775.09;5366998;32;34426;-72
2024/01/20 14:07:08;;;;;;;;;;;;;;;5.08;42.95;101775.75;5373090;32;34201;-71
2024/01/20 14:10:11;;;;;;;;;;;;;;;5.91;42.08;101775.25;5354625;32;34685;-71
2024/01/20 14:13:13;;;;;;;;;;;;;;;6.01;41.32;101770.06;5372023;32;34562;-71
2024/01/20 14:16:16;;;;;;;;;;;;;;;6.11;41.19;101763.97;5370269;32;35869;-71
2024/01/20 14:19:18;;;;;;;;;;;;;;;5.79;41.98;101769.97;5369117;32;34943;-70
2024/01/20 14:22:22;;;;;;;;;;;;;;;6.33;40.92;101757.03;5367363;32;35006;-70
2024/01/20 14:25:24;;;;;;;;;;;;;;;6.70;40.29;101768.34;5365584;32;35553;-70
2024/01/20 14:28:26;;;;;;;;;;;;;;;5.32;42.00;101777.62;5371897;32;35146;-70
2024/01/20 14:31:28;;;;;;;;;;;;;;;5.89;41.51;101770.88;5367576;32;35175;-70
2024/01/20 14:34:30;;;;;;;;;;;;;;;5.56;42.49;101771.66;5356938;32;35365;-70
2024/01/20 14:37:33;;;;;;;;;;;;;;;5.42;43.04;101775.09;5373235;32;34893;-71
2024/01/20 14:40:35;;;;;;;;;;;;;;;5.43;43.10;101773.34;5355812;32;35491;-70
2024/01/20 14:43:37;;;;;;;;;;;;;;;5.18;43.17;101774.97;5372820;32;35723;-70
2024/01/20 14:46:40;;;;;;;;;;;;;;;5.69;43.06;101778.66;5368292;32;34901;-71
2024/01/20 14:49:42;;;;;;;;;;;;;;;5.95;42.03;101778.75;5359062;32;34634;-69
2024/01/20 14:52:44;;;;;;;;;;;;;;;4.69;44.24;101790.28;5353961;32;34305;-69
2024/01/20 14:55:51;;;;;;;;;;;;;;;4.20;45.52;101784.69;5370421;32;34300;-70
2024/01/20 14:58:53;;;;;;;;;;;;;;;4.18;45.87;101782.91;5348041;32;34343;-71
2024/01/20 15:01:56;;;;;;;;;;;;;;;4.26;45.72;101787.34;5347065;32;34173;-70
2024/01/20 15:04:58;;;;;;;;;;;;;;;4.14;46.04;101801.97;5357093;32;35818;-70
2024/01/20 15:08:00;;;;;;;;;;;;;;;3.64;47.03;101789.28;5354671;32;35414;-69
2024/01/20 15:11:02;;;;;;;;;;;;;;;3.75;47.05;101791.16;5372417;32;34268;-69
2024/01/20 15:14:07;;;;;;;;;;;;;;;3.86;47.30;101787.78;5368040;32;34640;-69
2024/01/20 15:17:10;;;;;;;;;;;;;;;3.48;48.24;101793.44;5356189;32;35621;-70
2024/01/20 15:20:12;;;;;;;;;;;;;;;3.23;48.22;101802.66;5371809;32;35734;-69
2024/01/20 15:23:14;;;;;;;;;;;;;;;2.53;49.63;101797.28;5354762;32;35982;-70
2024/01/20 15:26:16;;;;;;;;;;;;;;;3.09;49.76;101814.53;5369931;32;35003;-69
2024/01/20 15:29:18;;;;;;;;;;;;;;;2.98;48.86;101815.28;5368461;32;35334;-70
2024/01/20 15:32:20;;;;;;;;;;;;;;;2.85;49.29;101804.69;5371625;32;34273;-70
2024/01/20 15:35:23;;;;;;;;;;;;;;;3.66;47.85;101814.44;5325896;32;35256;-71
2024/01/20 15:38:25;;;;;;;;;;;;;;;3.98;47.18;101813.94;5362880;32;35168;-70
2024/01/20 15:41:27;;;;;;;;;;;;;;;2.85;49.81;101813.34;5361736;32;34918;-70
2024/01/20 15:44:30;;;;;;;;;;;;;;;3.55;48.43;101805.66;5354260;32;35470;-70